sensor_id;sensor_type;location;lat;lon;timestamp;P1;durP1;ratioP1;P2;durP2;ratioP2
48161;SDS011;33950;48.154;16.316;2023-02-28T00:02:13;16.85;;;9.00;;
48161;SDS011;33950;48.154;16.316;2023-02-28T00:05:00;20.85;;;8.82;;
48161;SDS011;33950;48.154;16.316;2023-02-28T00:07:48;20.05;;;9.23;;
48161;SDS011;33950;48.154;16.316;2023-02-28T00:10:35;22.23;;;9.95;;
48161;SDS011;33950;48.154;16.316;2023-02-28T00:13:21;22.27;;;9.30;;
48161;SDS011;33950;48.154;16.316;2023-02-28T00:16:08;20.92;;;9.07;;
48161;SDS011;33950;48.154;16.316;2023-02-28T00:18:55;20.13;;;9.23;;
48161;SDS011;33950;48.154;16.316;2023-02-28T00:21:43;23.55;;;9.80;;
48161;SDS011;33950;48.154;16.316;2023-02-28T00:24:29;21.80;;;9.25;;
48161;SDS011;33950;48.154;16.316;2023-02-28T00:27:15;23.88;;;10.45;;
48161;SDS011;33950;48.154;16.316;2023-02-28T00:30:01;26.65;;;9.82;;
48161;SDS011;33950;48.154;16.316;2023-02-28T00:32:48;19.75;;;9.00;;
48161;SDS011;33950;48.154;16.316;2023-02-28T00:35:34;22.30;;;8.68;;
48161;SDS011;33950;48.154;16.316;2023-02-28T00:38:22;23.58;;;9.18;;
48161;SDS011;33950;48.154;16.316;2023-02-28T00:41:08;21.25;;;9.65;;
48161;SDS011;33950;48.154;16.316;2023-02-28T00:43:54;24.90;;;10.02;;
48161;SDS011;33950;48.154;16.316;2023-02-28T00:46:40;21.40;;;9.75;;
48161;SDS011;33950;48.154;16.316;2023-02-28T00:49:26;24.60;;;9.73;;
48161;SDS011;33950;48.154;16.316;2023-02-28T00:52:13;20.67;;;9.43;;
48161;SDS011;33950;48.154;16.316;2023-02-28T00:55:00;24.73;;;9.65;;
48161;SDS011;33950;48.154;16.316;2023-02-28T00:57:46;23.58;;;9.35;;
48161;SDS011;33950;48.154;16.316;2023-02-28T01:00:32;23.73;;;9.18;;
48161;SDS011;33950;48.154;16.316;2023-02-28T01:03:19;25.58;;;9.80;;
48161;SDS011;33950;48.154;16.316;2023-02-28T01:06:06;22.42;;;9.80;;
48161;SDS011;33950;48.154;16.316;2023-02-28T01:08:52;22.42;;;9.00;;
48161;SDS011;33950;48.154;16.316;2023-02-28T01:11:39;20.95;;;9.35;;
48161;SDS011;33950;48.154;16.316;2023-02-28T01:14:26;26.75;;;10.00;;
48161;SDS011;33950;48.154;16.316;2023-02-28T01:17:13;25.95;;;9.93;;
48161;SDS011;33950;48.154;16.316;2023-02-28T01:19:59;20.48;;;9.82;;
48161;SDS011;33950;48.154;16.316;2023-02-28T01:22:45;23.83;;;10.40;;
48161;SDS011;33950;48.154;16.316;2023-02-28T01:25:33;22.95;;;10.40;;
48161;SDS011;33950;48.154;16.316;2023-02-28T01:28:21;22.73;;;9.63;;
48161;SDS011;33950;48.154;16.316;2023-02-28T01:31:08;27.60;;;10.23;;
48161;SDS011;33950;48.154;16.316;2023-02-28T01:33:55;24.20;;;9.70;;
48161;SDS011;33950;48.154;16.316;2023-02-28T01:36:41;20.77;;;9.52;;
48161;SDS011;33950;48.154;16.316;2023-02-28T01:39:27;28.27;;;10.23;;
48161;SDS011;33950;48.154;16.316;2023-02-28T01:42:13;29.98;;;10.60;;
48161;SDS011;33950;48.154;16.316;2023-02-28T01:45:02;24.80;;;9.35;;
48161;SDS011;33950;48.154;16.316;2023-02-28T01:47:53;21.88;;;10.63;;
48161;SDS011;33950;48.154;16.316;2023-02-28T01:50:43;25.57;;;9.37;;
48161;SDS011;33950;48.154;16.316;2023-02-28T01:53:33;22.17;;;10.15;;
48161;SDS011;33950;48.154;16.316;2023-02-28T01:56:24;25.67;;;10.40;;
48161;SDS011;33950;48.154;16.316;2023-02-28T01:59:13;24.83;;;10.60;;
48161;SDS011;33950;48.154;16.316;2023-02-28T02:02:06;28.88;;;10.82;;
48161;SDS011;33950;48.154;16.316;2023-02-28T02:04:53;24.70;;;10.85;;
48161;SDS011;33950;48.154;16.316;2023-02-28T02:07:43;21.58;;;10.15;;
48161;SDS011;33950;48.154;16.316;2023-02-28T02:10:33;20.13;;;9.30;;
48161;SDS011;33950;48.154;16.316;2023-02-28T02:13:25;23.63;;;10.13;;
48161;SDS011;33950;48.154;16.316;2023-02-28T02:16:27;23.67;;;9.73;;
48161;SDS011;33950;48.154;16.316;2023-02-28T02:19:36;25.38;;;9.50;;
48161;SDS011;33950;48.154;16.316;2023-02-28T02:23:07;35.20;;;10.45;;
48161;SDS011;33950;48.154;16.316;2023-02-28T02:26:11;20.00;;;9.13;;
48161;SDS011;33950;48.154;16.316;2023-02-28T02:29:21;25.02;;;10.48;;
48161;SDS011;33950;48.154;16.316;2023-02-28T02:32:28;25.80;;;10.52;;
48161;SDS011;33950;48.154;16.316;2023-02-28T02:35:31;25.58;;;10.32;;
48161;SDS011;33950;48.154;16.316;2023-02-28T02:38:29;27.02;;;11.23;;
48161;SDS011;33950;48.154;16.316;2023-02-28T02:41:22;23.05;;;9.57;;
48161;SDS011;33950;48.154;16.316;2023-02-28T02:44:15;23.70;;;9.07;;
48161;SDS011;33950;48.154;16.316;2023-02-28T02:47:08;24.33;;;9.50;;
48161;SDS011;33950;48.154;16.316;2023-02-28T02:49:57;22.77;;;10.32;;
48161;SDS011;33950;48.154;16.316;2023-02-28T02:52:51;22.23;;;9.77;;
48161;SDS011;33950;48.154;16.316;2023-02-28T02:55:42;22.17;;;9.77;;
48161;SDS011;33950;48.154;16.316;2023-02-28T02:58:32;23.85;;;10.23;;
48161;SDS011;33950;48.154;16.316;2023-02-28T03:01:27;26.83;;;10.35;;
48161;SDS011;33950;48.154;16.316;2023-02-28T03:04:17;28.88;;;9.75;;
48161;SDS011;33950;48.154;16.316;2023-02-28T03:07:06;24.83;;;10.18;;
48161;SDS011;33950;48.154;16.316;2023-02-28T03:09:54;24.65;;;9.65;;
48161;SDS011;33950;48.154;16.316;2023-02-28T03:12:48;27.25;;;10.05;;
48161;SDS011;33950;48.154;16.316;2023-02-28T03:15:43;23.83;;;10.35;;
48161;SDS011;33950;48.154;16.316;2023-02-28T03:18:36;24.98;;;10.07;;
48161;SDS011;33950;48.154;16.316;2023-02-28T03:21:28;25.55;;;9.68;;
48161;SDS011;33950;48.154;16.316;2023-02-28T03:27:17;27.17;;;10.00;;
48161;SDS011;33950;48.154;16.316;2023-02-28T03:30:10;23.35;;;10.55;;
48161;SDS011;33950;48.154;16.316;2023-02-28T03:33:02;25.08;;;9.65;;
48161;SDS011;33950;48.154;16.316;2023-02-28T03:35:52;28.98;;;10.50;;
48161;SDS011;33950;48.154;16.316;2023-02-28T03:38:42;26.88;;;11.43;;
48161;SDS011;33950;48.154;16.316;2023-02-28T03:41:35;27.52;;;11.07;;
48161;SDS011;33950;48.154;16.316;2023-02-28T03:44:25;24.23;;;9.52;;
48161;SDS011;33950;48.154;16.316;2023-02-28T03:47:16;28.27;;;10.77;;
48161;SDS011;33950;48.154;16.316;2023-02-28T03:50:07;20.88;;;9.57;;
48161;SDS011;33950;48.154;16.316;2023-02-28T03:52:57;22.52;;;10.32;;
48161;SDS011;33950;48.154;16.316;2023-02-28T03:55:48;21.27;;;10.15;;
48161;SDS011;33950;48.154;16.316;2023-02-28T03:58:37;21.70;;;9.88;;
48161;SDS011;33950;48.154;16.316;2023-02-28T04:01:31;26.38;;;9.77;;
48161;SDS011;33950;48.154;16.316;2023-02-28T04:04:21;23.73;;;10.75;;
48161;SDS011;33950;48.154;16.316;2023-02-28T04:07:08;27.65;;;10.80;;
48161;SDS011;33950;48.154;16.316;2023-02-28T04:09:56;25.40;;;10.38;;
48161;SDS011;33950;48.154;16.316;2023-02-28T04:12:43;29.33;;;11.05;;
48161;SDS011;33950;48.154;16.316;2023-02-28T04:15:29;35.88;;;10.93;;
48161;SDS011;33950;48.154;16.316;2023-02-28T04:18:16;24.38;;;10.90;;
48161;SDS011;33950;48.154;16.316;2023-02-28T04:21:03;34.00;;;12.43;;
48161;SDS011;33950;48.154;16.316;2023-02-28T04:23:49;21.42;;;10.18;;
48161;SDS011;33950;48.154;16.316;2023-02-28T04:26:36;26.75;;;11.07;;
48161;SDS011;33950;48.154;16.316;2023-02-28T04:29:23;22.55;;;10.93;;
48161;SDS011;33950;48.154;16.316;2023-02-28T04:32:10;27.45;;;10.98;;
48161;SDS011;33950;48.154;16.316;2023-02-28T04:34:58;30.15;;;11.65;;
48161;SDS011;33950;48.154;16.316;2023-02-28T04:37:44;29.38;;;12.68;;
48161;SDS011;33950;48.154;16.316;2023-02-28T04:40:30;29.45;;;11.38;;
48161;SDS011;33950;48.154;16.316;2023-02-28T04:43:16;26.80;;;11.05;;
48161;SDS011;33950;48.154;16.316;2023-02-28T04:46:03;28.38;;;11.93;;
48161;SDS011;33950;48.154;16.316;2023-02-28T04:48:50;27.85;;;11.02;;
48161;SDS011;33950;48.154;16.316;2023-02-28T04:51:37;31.45;;;11.95;;
48161;SDS011;33950;48.154;16.316;2023-02-28T04:54:23;25.50;;;11.27;;
48161;SDS011;33950;48.154;16.316;2023-02-28T04:57:09;39.63;;;12.35;;
48161;SDS011;33950;48.154;16.316;2023-02-28T04:59:55;33.95;;;13.40;;
48161;SDS011;33950;48.154;16.316;2023-02-28T05:02:41;28.63;;;12.10;;
48161;SDS011;33950;48.154;16.316;2023-02-28T05:05:28;25.08;;;11.52;;
48161;SDS011;33950;48.154;16.316;2023-02-28T05:08:15;24.55;;;11.73;;
48161;SDS011;33950;48.154;16.316;2023-02-28T05:11:01;30.55;;;12.82;;
48161;SDS011;33950;48.154;16.316;2023-02-28T05:13:48;35.00;;;11.63;;
48161;SDS011;33950;48.154;16.316;2023-02-28T05:16:35;29.30;;;12.70;;
48161;SDS011;33950;48.154;16.316;2023-02-28T05:19:21;31.15;;;12.57;;
48161;SDS011;33950;48.154;16.316;2023-02-28T05:22:11;32.42;;;12.65;;
48161;SDS011;33950;48.154;16.316;2023-02-28T05:27:47;32.13;;;13.18;;
48161;SDS011;33950;48.154;16.316;2023-02-28T05:30:33;36.03;;;13.73;;
48161;SDS011;33950;48.154;16.316;2023-02-28T05:33:19;47.50;;;14.25;;
48161;SDS011;33950;48.154;16.316;2023-02-28T05:36:06;38.33;;;14.65;;
48161;SDS011;33950;48.154;16.316;2023-02-28T05:38:52;37.10;;;14.73;;
48161;SDS011;33950;48.154;16.316;2023-02-28T05:41:41;39.28;;;14.20;;
48161;SDS011;33950;48.154;16.316;2023-02-28T05:44:28;45.55;;;15.07;;
48161;SDS011;33950;48.154;16.316;2023-02-28T05:47:14;37.33;;;15.75;;
48161;SDS011;33950;48.154;16.316;2023-02-28T05:50:00;36.22;;;14.77;;
48161;SDS011;33950;48.154;16.316;2023-02-28T05:52:48;42.00;;;15.20;;
48161;SDS011;33950;48.154;16.316;2023-02-28T05:55:35;36.78;;;14.15;;
48161;SDS011;33950;48.154;16.316;2023-02-28T05:58:24;35.80;;;15.07;;
48161;SDS011;33950;48.154;16.316;2023-02-28T06:01:20;43.53;;;14.38;;
48161;SDS011;33950;48.154;16.316;2023-02-28T06:04:09;32.60;;;13.52;;
48161;SDS011;33950;48.154;16.316;2023-02-28T06:06:56;34.55;;;13.93;;
48161;SDS011;33950;48.154;16.316;2023-02-28T06:09:42;38.72;;;13.32;;
48161;SDS011;33950;48.154;16.316;2023-02-28T06:12:28;36.78;;;13.52;;
48161;SDS011;33950;48.154;16.316;2023-02-28T06:15:16;36.45;;;12.45;;
48161;SDS011;33950;48.154;16.316;2023-02-28T06:18:02;29.52;;;12.95;;
48161;SDS011;33950;48.154;16.316;2023-02-28T06:20:52;33.03;;;13.10;;
48161;SDS011;33950;48.154;16.316;2023-02-28T06:23:39;35.33;;;12.07;;
48161;SDS011;33950;48.154;16.316;2023-02-28T06:26:25;27.90;;;12.35;;
48161;SDS011;33950;48.154;16.316;2023-02-28T06:29:12;28.58;;;12.52;;
48161;SDS011;33950;48.154;16.316;2023-02-28T06:32:03;26.55;;;11.20;;
48161;SDS011;33950;48.154;16.316;2023-02-28T06:34:49;37.20;;;13.80;;
48161;SDS011;33950;48.154;16.316;2023-02-28T06:37:36;32.47;;;12.25;;
48161;SDS011;33950;48.154;16.316;2023-02-28T06:40:22;31.42;;;13.32;;
48161;SDS011;33950;48.154;16.316;2023-02-28T06:43:08;32.72;;;12.18;;
48161;SDS011;33950;48.154;16.316;2023-02-28T06:45:59;28.40;;;12.20;;
48161;SDS011;33950;48.154;16.316;2023-02-28T06:48:47;32.42;;;13.45;;
48161;SDS011;33950;48.154;16.316;2023-02-28T06:51:33;38.28;;;14.93;;
48161;SDS011;33950;48.154;16.316;2023-02-28T06:54:20;33.47;;;14.05;;
48161;SDS011;33950;48.154;16.316;2023-02-28T06:57:07;42.28;;;13.32;;
48161;SDS011;33950;48.154;16.316;2023-02-28T06:59:53;36.83;;;13.15;;
48161;SDS011;33950;48.154;16.316;2023-02-28T07:02:39;31.45;;;13.30;;
48161;SDS011;33950;48.154;16.316;2023-02-28T07:05:26;32.38;;;14.68;;
48161;SDS011;33950;48.154;16.316;2023-02-28T07:08:12;38.70;;;15.00;;
48161;SDS011;33950;48.154;16.316;2023-02-28T07:10:58;39.03;;;15.60;;
48161;SDS011;33950;48.154;16.316;2023-02-28T07:13:44;35.45;;;15.85;;
48161;SDS011;33950;48.154;16.316;2023-02-28T07:16:32;37.45;;;14.85;;
48161;SDS011;33950;48.154;16.316;2023-02-28T07:19:19;33.92;;;15.68;;
48161;SDS011;33950;48.154;16.316;2023-02-28T07:22:06;35.50;;;15.95;;
48161;SDS011;33950;48.154;16.316;2023-02-28T07:24:53;43.17;;;14.77;;
48161;SDS011;33950;48.154;16.316;2023-02-28T07:27:39;33.22;;;14.15;;
48161;SDS011;33950;48.154;16.316;2023-02-28T07:30:25;36.40;;;16.05;;
48161;SDS011;33950;48.154;16.316;2023-02-28T07:33:11;35.15;;;14.95;;
48161;SDS011;33950;48.154;16.316;2023-02-28T07:35:59;36.80;;;16.10;;
48161;SDS011;33950;48.154;16.316;2023-02-28T07:38:48;36.55;;;15.95;;
48161;SDS011;33950;48.154;16.316;2023-02-28T07:41:35;33.65;;;15.07;;
48161;SDS011;33950;48.154;16.316;2023-02-28T07:44:28;38.05;;;15.50;;
48161;SDS011;33950;48.154;16.316;2023-02-28T07:47:14;41.88;;;17.13;;
48161;SDS011;33950;48.154;16.316;2023-02-28T07:50:00;34.63;;;14.93;;
48161;SDS011;33950;48.154;16.316;2023-02-28T07:52:46;36.15;;;15.65;;
48161;SDS011;33950;48.154;16.316;2023-02-28T07:55:34;36.80;;;15.50;;
48161;SDS011;33950;48.154;16.316;2023-02-28T07:58:20;38.85;;;15.63;;
48161;SDS011;33950;48.154;16.316;2023-02-28T08:01:07;36.25;;;15.27;;
48161;SDS011;33950;48.154;16.316;2023-02-28T08:03:53;34.13;;;14.95;;
48161;SDS011;33950;48.154;16.316;2023-02-28T08:06:42;44.28;;;15.10;;
48161;SDS011;33950;48.154;16.316;2023-02-28T08:09:28;36.53;;;13.93;;
48161;SDS011;33950;48.154;16.316;2023-02-28T08:12:17;38.90;;;16.35;;
48161;SDS011;33950;48.154;16.316;2023-02-28T08:15:03;38.78;;;15.43;;
48161;SDS011;33950;48.154;16.316;2023-02-28T08:17:50;39.13;;;16.02;;
48161;SDS011;33950;48.154;16.316;2023-02-28T08:20:36;34.15;;;15.50;;
48161;SDS011;33950;48.154;16.316;2023-02-28T08:23:22;34.30;;;16.20;;
48161;SDS011;33950;48.154;16.316;2023-02-28T08:26:08;45.35;;;16.70;;
48161;SDS011;33950;48.154;16.316;2023-02-28T08:28:56;37.03;;;16.23;;
48161;SDS011;33950;48.154;16.316;2023-02-28T08:31:42;32.45;;;14.98;;
48161;SDS011;33950;48.154;16.316;2023-02-28T08:34:28;29.95;;;14.45;;
48161;SDS011;33950;48.154;16.316;2023-02-28T08:37:14;34.50;;;15.05;;
48161;SDS011;33950;48.154;16.316;2023-02-28T08:40:00;34.95;;;14.75;;
48161;SDS011;33950;48.154;16.316;2023-02-28T08:42:47;32.40;;;15.35;;
48161;SDS011;33950;48.154;16.316;2023-02-28T08:45:34;29.17;;;13.93;;
48161;SDS011;33950;48.154;16.316;2023-02-28T08:48:20;34.08;;;15.57;;
48161;SDS011;33950;48.154;16.316;2023-02-28T08:51:08;32.30;;;15.18;;
48161;SDS011;33950;48.154;16.316;2023-02-28T08:53:57;34.47;;;16.50;;
48161;SDS011;33950;48.154;16.316;2023-02-28T08:56:45;29.30;;;14.45;;
48161;SDS011;33950;48.154;16.316;2023-02-28T08:59:34;34.90;;;14.43;;
48161;SDS011;33950;48.154;16.316;2023-02-28T09:02:21;28.17;;;14.45;;
48161;SDS011;33950;48.154;16.316;2023-02-28T09:05:08;30.48;;;13.63;;
48161;SDS011;33950;48.154;16.316;2023-02-28T09:07:54;30.90;;;14.60;;
48161;SDS011;33950;48.154;16.316;2023-02-28T09:10:40;30.00;;;13.80;;
48161;SDS011;33950;48.154;16.316;2023-02-28T09:13:26;32.97;;;13.80;;
48161;SDS011;33950;48.154;16.316;2023-02-28T09:16:14;31.17;;;14.40;;
48161;SDS011;33950;48.154;16.316;2023-02-28T09:19:02;28.00;;;13.20;;
48161;SDS011;33950;48.154;16.316;2023-02-28T09:21:48;31.52;;;14.27;;
48161;SDS011;33950;48.154;16.316;2023-02-28T09:24:35;30.50;;;14.25;;
48161;SDS011;33950;48.154;16.316;2023-02-28T09:27:21;30.83;;;13.95;;
48161;SDS011;33950;48.154;16.316;2023-02-28T09:30:08;35.38;;;13.32;;
48161;SDS011;33950;48.154;16.316;2023-02-28T09:32:55;30.70;;;15.15;;
48161;SDS011;33950;48.154;16.316;2023-02-28T09:35:43;36.47;;;14.50;;
48161;SDS011;33950;48.154;16.316;2023-02-28T09:38:29;33.05;;;14.95;;
48161;SDS011;33950;48.154;16.316;2023-02-28T09:41:16;28.55;;;13.57;;
48161;SDS011;33950;48.154;16.316;2023-02-28T09:44:04;28.10;;;13.93;;
48161;SDS011;33950;48.154;16.316;2023-02-28T09:46:54;27.77;;;13.93;;
48161;SDS011;33950;48.154;16.316;2023-02-28T09:49:45;33.80;;;12.57;;
48161;SDS011;33950;48.154;16.316;2023-02-28T09:52:34;28.85;;;13.48;;
48161;SDS011;33950;48.154;16.316;2023-02-28T09:55:22;33.28;;;15.93;;
48161;SDS011;33950;48.154;16.316;2023-02-28T09:58:16;32.30;;;13.40;;
48161;SDS011;33950;48.154;16.316;2023-02-28T10:01:09;33.45;;;14.57;;
48161;SDS011;33950;48.154;16.316;2023-02-28T10:04:05;37.25;;;15.43;;
48161;SDS011;33950;48.154;16.316;2023-02-28T10:06:56;33.45;;;14.10;;
48161;SDS011;33950;48.154;16.316;2023-02-28T10:09:44;29.70;;;14.82;;
48161;SDS011;33950;48.154;16.316;2023-02-28T10:12:32;32.95;;;14.60;;
48161;SDS011;33950;48.154;16.316;2023-02-28T10:15:23;32.28;;;15.23;;
48161;SDS011;33950;48.154;16.316;2023-02-28T10:18:13;27.85;;;13.95;;
48161;SDS011;33950;48.154;16.316;2023-02-28T10:21:03;42.45;;;14.68;;
48161;SDS011;33950;48.154;16.316;2023-02-28T10:23:50;46.80;;;16.65;;
48161;SDS011;33950;48.154;16.316;2023-02-28T10:26:44;27.70;;;13.57;;
48161;SDS011;33950;48.154;16.316;2023-02-28T10:29:32;34.10;;;16.17;;
48161;SDS011;33950;48.154;16.316;2023-02-28T10:32:20;31.33;;;14.68;;
48161;SDS011;33950;48.154;16.316;2023-02-28T10:35:11;29.40;;;14.23;;
48161;SDS011;33950;48.154;16.316;2023-02-28T10:38:03;35.83;;;15.50;;
48161;SDS011;33950;48.154;16.316;2023-02-28T10:41:04;31.30;;;14.45;;
48161;SDS011;33950;48.154;16.316;2023-02-28T10:43:52;38.95;;;14.40;;
48161;SDS011;33950;48.154;16.316;2023-02-28T10:46:56;31.92;;;13.73;;
48161;SDS011;33950;48.154;16.316;2023-02-28T10:49:46;29.92;;;14.88;;
48161;SDS011;33950;48.154;16.316;2023-02-28T10:52:36;32.20;;;16.20;;
48161;SDS011;33950;48.154;16.316;2023-02-28T10:55:25;29.60;;;15.23;;
48161;SDS011;33950;48.154;16.316;2023-02-28T10:58:20;27.48;;;14.25;;
48161;SDS011;33950;48.154;16.316;2023-02-28T11:01:12;31.30;;;15.40;;
48161;SDS011;33950;48.154;16.316;2023-02-28T11:06:45;27.15;;;14.25;;
48161;SDS011;33950;48.154;16.316;2023-02-28T11:09:33;37.63;;;15.95;;
48161;SDS011;33950;48.154;16.316;2023-02-28T11:12:21;41.67;;;13.77;;
48161;SDS011;33950;48.154;16.316;2023-02-28T11:15:18;26.67;;;13.10;;
48161;SDS011;33950;48.154;16.316;2023-02-28T11:18:15;25.33;;;12.77;;
48161;SDS011;33950;48.154;16.316;2023-02-28T11:21:08;25.67;;;13.80;;
48161;SDS011;33950;48.154;16.316;2023-02-28T11:26:49;24.77;;;13.93;;
48161;SDS011;33950;48.154;16.316;2023-02-28T11:29:35;28.48;;;14.57;;
48161;SDS011;33950;48.154;16.316;2023-02-28T11:32:33;25.40;;;14.63;;
48161;SDS011;33950;48.154;16.316;2023-02-28T11:35:23;26.25;;;13.57;;
48161;SDS011;33950;48.154;16.316;2023-02-28T11:38:12;28.58;;;14.40;;
48161;SDS011;33950;48.154;16.316;2023-02-28T11:41:07;25.77;;;14.27;;
48161;SDS011;33950;48.154;16.316;2023-02-28T11:44:06;24.73;;;14.48;;
48161;SDS011;33950;48.154;16.316;2023-02-28T11:47:12;34.50;;;14.82;;
48161;SDS011;33950;48.154;16.316;2023-02-28T11:50:14;25.80;;;15.18;;
48161;SDS011;33950;48.154;16.316;2023-02-28T11:53:14;27.02;;;15.23;;
48161;SDS011;33950;48.154;16.316;2023-02-28T11:56:08;33.70;;;16.38;;
48161;SDS011;33950;48.154;16.316;2023-02-28T11:59:09;30.55;;;15.05;;
48161;SDS011;33950;48.154;16.316;2023-02-28T12:02:17;28.42;;;15.25;;
48161;SDS011;33950;48.154;16.316;2023-02-28T12:05:11;28.90;;;14.95;;
48161;SDS011;33950;48.154;16.316;2023-02-28T12:08:15;26.77;;;14.15;;
48161;SDS011;33950;48.154;16.316;2023-02-28T12:11:11;29.58;;;15.13;;
48161;SDS011;33950;48.154;16.316;2023-02-28T12:14:18;27.25;;;14.05;;
48161;SDS011;33950;48.154;16.316;2023-02-28T12:17:32;25.17;;;14.13;;
48161;SDS011;33950;48.154;16.316;2023-02-28T12:20:32;30.75;;;14.18;;
48161;SDS011;33950;48.154;16.316;2023-02-28T12:23:29;31.40;;;14.77;;
48161;SDS011;33950;48.154;16.316;2023-02-28T12:26:34;24.98;;;13.63;;
48161;SDS011;33950;48.154;16.316;2023-02-28T12:29:24;27.48;;;14.60;;
48161;SDS011;33950;48.154;16.316;2023-02-28T12:32:15;28.10;;;13.68;;
48161;SDS011;33950;48.154;16.316;2023-02-28T12:35:06;21.95;;;12.35;;
48161;SDS011;33950;48.154;16.316;2023-02-28T12:37:59;24.45;;;12.82;;
48161;SDS011;33950;48.154;16.316;2023-02-28T12:40:52;28.02;;;13.80;;
48161;SDS011;33950;48.154;16.316;2023-02-28T12:43:42;27.52;;;14.43;;
48161;SDS011;33950;48.154;16.316;2023-02-28T12:46:32;24.58;;;12.85;;
48161;SDS011;33950;48.154;16.316;2023-02-28T12:49:21;22.55;;;12.98;;
48161;SDS011;33950;48.154;16.316;2023-02-28T12:52:13;22.00;;;11.93;;
48161;SDS011;33950;48.154;16.316;2023-02-28T12:55:08;31.80;;;11.40;;
48161;SDS011;33950;48.154;16.316;2023-02-28T12:58:05;18.88;;;10.65;;
48161;SDS011;33950;48.154;16.316;2023-02-28T13:01:15;23.85;;;10.65;;
48161;SDS011;33950;48.154;16.316;2023-02-28T13:04:27;15.60;;;9.73;;
48161;SDS011;33950;48.154;16.316;2023-02-28T13:07:40;14.38;;;8.52;;
48161;SDS011;33950;48.154;16.316;2023-02-28T13:10:41;15.35;;;8.70;;
48161;SDS011;33950;48.154;16.316;2023-02-28T13:13:31;15.40;;;9.05;;
48161;SDS011;33950;48.154;16.316;2023-02-28T13:16:17;17.35;;;9.70;;
48161;SDS011;33950;48.154;16.316;2023-02-28T13:19:16;17.13;;;9.70;;
48161;SDS011;33950;48.154;16.316;2023-02-28T13:22:05;21.95;;;8.98;;
48161;SDS011;33950;48.154;16.316;2023-02-28T13:25:03;19.20;;;9.75;;
48161;SDS011;33950;48.154;16.316;2023-02-28T13:35:36;17.27;;;9.20;;
48161;SDS011;33950;48.154;16.316;2023-02-28T13:38:33;17.63;;;9.70;;
48161;SDS011;33950;48.154;16.316;2023-02-28T13:41:41;19.33;;;9.35;;
48161;SDS011;33950;48.154;16.316;2023-02-28T13:44:31;42.40;;;10.65;;
48161;SDS011;33950;48.154;16.316;2023-02-28T13:47:59;17.08;;;9.25;;
48161;SDS011;33950;48.154;16.316;2023-02-28T13:50:47;22.95;;;10.55;;
48161;SDS011;33950;48.154;16.316;2023-02-28T13:53:49;16.23;;;10.02;;
48161;SDS011;33950;48.154;16.316;2023-02-28T13:56:45;25.10;;;9.75;;
48161;SDS011;33950;48.154;16.316;2023-02-28T13:59:37;19.50;;;9.75;;
48161;SDS011;33950;48.154;16.316;2023-02-28T14:05:47;22.20;;;9.15;;
48161;SDS011;33950;48.154;16.316;2023-02-28T14:08:56;15.73;;;9.45;;
48161;SDS011;33950;48.154;16.316;2023-02-28T14:11:44;20.75;;;10.45;;
48161;SDS011;33950;48.154;16.316;2023-02-28T14:17:39;21.52;;;10.60;;
48161;SDS011;33950;48.154;16.316;2023-02-28T14:20:27;17.00;;;9.55;;
48161;SDS011;33950;48.154;16.316;2023-02-28T14:23:21;23.13;;;10.27;;
48161;SDS011;33950;48.154;16.316;2023-02-28T14:26:26;24.55;;;10.63;;
48161;SDS011;33950;48.154;16.316;2023-02-28T14:29:24;19.27;;;9.60;;
48161;SDS011;33950;48.154;16.316;2023-02-28T14:32:32;19.55;;;10.48;;
48161;SDS011;33950;48.154;16.316;2023-02-28T14:35:35;21.52;;;10.50;;
48161;SDS011;33950;48.154;16.316;2023-02-28T14:38:32;17.90;;;9.70;;
48161;SDS011;33950;48.154;16.316;2023-02-28T14:41:28;16.70;;;9.40;;
48161;SDS011;33950;48.154;16.316;2023-02-28T14:44:17;17.65;;;9.18;;
48161;SDS011;33950;48.154;16.316;2023-02-28T14:47:11;16.85;;;9.70;;
48161;SDS011;33950;48.154;16.316;2023-02-28T14:50:02;19.85;;;9.38;;
48161;SDS011;33950;48.154;16.316;2023-02-28T14:52:51;18.42;;;9.82;;
48161;SDS011;33950;48.154;16.316;2023-02-28T14:55:43;21.75;;;10.32;;
48161;SDS011;33950;48.154;16.316;2023-02-28T15:01:18;22.25;;;10.77;;
48161;SDS011;33950;48.154;16.316;2023-02-28T15:04:06;19.38;;;10.77;;
48161;SDS011;33950;48.154;16.316;2023-02-28T15:07:08;19.40;;;10.33;;
48161;SDS011;33950;48.154;16.316;2023-02-28T15:10:15;24.10;;;10.43;;
48161;SDS011;33950;48.154;16.316;2023-02-28T15:13:06;15.48;;;8.93;;
48161;SDS011;33950;48.154;16.316;2023-02-28T15:15:54;22.70;;;10.85;;
48161;SDS011;33950;48.154;16.316;2023-02-28T15:18:43;18.10;;;10.45;;
48161;SDS011;33950;48.154;16.316;2023-02-28T15:21:34;19.65;;;10.98;;
48161;SDS011;33950;48.154;16.316;2023-02-28T15:24:23;19.77;;;11.13;;
48161;SDS011;33950;48.154;16.316;2023-02-28T15:27:19;16.98;;;10.23;;
48161;SDS011;33950;48.154;16.316;2023-02-28T15:30:13;17.00;;;10.32;;
48161;SDS011;33950;48.154;16.316;2023-02-28T15:33:03;17.20;;;9.90;;
48161;SDS011;33950;48.154;16.316;2023-02-28T15:38:58;20.60;;;11.05;;
48161;SDS011;33950;48.154;16.316;2023-02-28T15:41:45;21.05;;;11.23;;
48161;SDS011;33950;48.154;16.316;2023-02-28T15:44:33;21.70;;;10.93;;
48161;SDS011;33950;48.154;16.316;2023-02-28T15:47:22;20.05;;;11.13;;
48161;SDS011;33950;48.154;16.316;2023-02-28T15:50:10;18.10;;;10.55;;
48161;SDS011;33950;48.154;16.316;2023-02-28T15:52:59;23.33;;;11.82;;
48161;SDS011;33950;48.154;16.316;2023-02-28T15:55:55;22.98;;;10.77;;
48161;SDS011;33950;48.154;16.316;2023-02-28T15:58:45;18.08;;;10.30;;
48161;SDS011;33950;48.154;16.316;2023-02-28T16:01:32;18.02;;;10.25;;
48161;SDS011;33950;48.154;16.316;2023-02-28T16:04:20;17.08;;;10.25;;
48161;SDS011;33950;48.154;16.316;2023-02-28T16:07:12;18.27;;;10.38;;
48161;SDS011;33950;48.154;16.316;2023-02-28T16:09:58;21.35;;;10.00;;
48161;SDS011;33950;48.154;16.316;2023-02-28T16:12:44;17.00;;;9.68;;
48161;SDS011;33950;48.154;16.316;2023-02-28T16:15:31;19.98;;;10.45;;
48161;SDS011;33950;48.154;16.316;2023-02-28T16:18:26;15.95;;;10.27;;
48161;SDS011;33950;48.154;16.316;2023-02-28T16:21:14;22.95;;;11.30;;
48161;SDS011;33950;48.154;16.316;2023-02-28T16:24:00;25.88;;;10.38;;
48161;SDS011;33950;48.154;16.316;2023-02-28T16:26:46;31.70;;;10.70;;
48161;SDS011;33950;48.154;16.316;2023-02-28T16:29:36;22.02;;;11.07;;
48161;SDS011;33950;48.154;16.316;2023-02-28T16:32:23;30.25;;;11.63;;
48161;SDS011;33950;48.154;16.316;2023-02-28T16:35:09;27.42;;;10.80;;
48161;SDS011;33950;48.154;16.316;2023-02-28T16:37:57;22.73;;;11.73;;
48161;SDS011;33950;48.154;16.316;2023-02-28T16:40:43;21.90;;;11.82;;
48161;SDS011;33950;48.154;16.316;2023-02-28T16:43:30;18.73;;;11.05;;
48161;SDS011;33950;48.154;16.316;2023-02-28T16:46:17;23.25;;;12.38;;
48161;SDS011;33950;48.154;16.316;2023-02-28T16:49:04;22.23;;;12.48;;
48161;SDS011;33950;48.154;16.316;2023-02-28T16:51:54;22.40;;;12.45;;
48161;SDS011;33950;48.154;16.316;2023-02-28T16:54:41;24.00;;;11.70;;
48161;SDS011;33950;48.154;16.316;2023-02-28T16:57:27;23.33;;;12.02;;